createdAt,value
2019-04-01T00:00:37.883Z,84.80
2019-04-01T00:03:08.006Z,84.70
2019-04-01T00:05:36.538Z,84.60
2019-04-01T00:08:05.092Z,84.70
2019-04-01T00:10:33.574Z,84.70
2019-04-01T00:13:02.031Z,84.80
2019-04-01T00:15:30.494Z,84.90
2019-04-01T00:17:58.915Z,85.20
2019-04-01T00:20:27.371Z,85.00
2019-04-01T00:22:55.896Z,85.10
2019-04-01T00:25:24.633Z,85.20
2019-04-01T00:27:53.108Z,85.20
2019-04-01T00:30:21.619Z,85.10
2019-04-01T00:32:50.066Z,85.40
2019-04-01T00:35:18.643Z,85.50
2019-04-01T00:37:47.118Z,85.40
2019-04-01T00:40:15.691Z,85.40
2019-04-01T00:42:45.824Z,85.60
2019-04-01T00:45:15.990Z,85.90
2019-04-01T00:47:44.488Z,86.00
2019-04-01T00:50:13.033Z,86.30
2019-04-01T00:52:41.483Z,86.40
2019-04-01T00:55:10.051Z,86.40
2019-04-01T00:57:38.522Z,86.60
2019-04-01T01:00:07.327Z,86.70
2019-04-01T01:02:35.756Z,87.20
2019-04-01T01:05:09.054Z,87.20
2019-04-01T01:07:37.611Z,87.10
2019-04-01T01:10:07.875Z,87.50
2019-04-01T01:12:37.698Z,87.40
2019-04-01T01:15:07.471Z,87.30
2019-04-01T01:17:55.266Z,87.40
2019-04-01T01:20:23.779Z,87.50
2019-04-01T01:22:52.221Z,87.90
2019-04-01T01:25:20.754Z,87.90
2019-04-01T01:27:49.203Z,88.40
2019-04-01T01:30:20.639Z,87.50
2019-04-01T01:32:49.135Z,87.50
2019-04-01T01:35:17.577Z,87.60
2019-04-01T01:37:46.075Z,87.50
2019-04-01T01:40:14.560Z,87.40
2019-04-01T01:42:43.000Z,87.80
2019-04-01T01:45:30.856Z,87.90
2019-04-01T01:47:59.304Z,87.80
2019-04-01T01:50:27.811Z,87.50
2019-04-01T01:52:56.255Z,87.30
2019-04-01T01:55:24.714Z,87.40
2019-04-01T01:57:53.179Z,87.40
2019-04-01T02:00:22.890Z,87.70
2019-04-01T02:02:51.381Z,88.00
2019-04-01T02:05:20.468Z,88.40
2019-04-01T02:07:49.007Z,89.00
2019-04-01T02:10:17.548Z,89.20
2019-04-01T02:12:46.036Z,89.20
2019-04-01T02:15:14.566Z,89.60
2019-04-01T02:17:43.079Z,89.50
2019-04-01T02:20:11.574Z,89.50
2019-04-01T02:22:40.072Z,89.80
2019-04-01T02:25:08.760Z,90.00
2019-04-01T02:27:37.264Z,90.20
2019-04-01T02:30:05.991Z,90.30
2019-04-01T02:32:34.447Z,90.40
2019-04-01T02:35:02.970Z,90.40
2019-04-01T02:37:31.446Z,90.60
2019-04-01T02:39:59.942Z,90.60
2019-04-01T02:42:28.394Z,90.70
2019-04-01T02:44:57.189Z,90.70
2019-04-01T02:47:25.658Z,90.70
2019-04-01T02:49:54.071Z,91.00
2019-04-01T02:52:22.522Z,90.80
2019-04-01T02:54:51.125Z,90.80
2019-04-01T02:57:19.791Z,90.90
2019-04-01T02:59:48.235Z,90.90
2019-04-01T03:02:16.779Z,90.90
2019-04-01T03:04:45.325Z,91.00
2019-04-01T03:07:13.736Z,91.00
2019-04-01T03:09:42.206Z,91.00
2019-04-01T03:12:10.695Z,90.90
2019-04-01T03:14:39.160Z,91.00
2019-04-01T03:17:08.002Z,91.10
2019-04-01T03:19:36.568Z,91.30
2019-04-01T03:22:05.122Z,91.40
2019-04-01T03:24:33.602Z,91.40
2019-04-01T03:27:02.132Z,91.60
2019-04-01T03:29:30.664Z,91.70
2019-04-01T03:31:59.150Z,91.70
2019-04-01T03:34:27.577Z,91.60
2019-04-01T03:36:57.558Z,91.70
2019-04-01T03:39:26.030Z,91.70
2019-04-01T03:41:54.544Z,91.70
2019-04-01T03:44:23.144Z,91.80
2019-04-01T03:46:51.606Z,91.80
2019-04-01T03:49:20.177Z,91.90
2019-04-01T03:51:48.658Z,91.90
2019-04-01T03:54:17.107Z,91.90
2019-04-01T03:56:45.601Z,91.90
2019-04-01T03:59:14.021Z,91.90
2019-04-01T04:01:42.497Z,91.90
2019-04-01T04:04:10.971Z,91.90
2019-04-01T04:06:39.425Z,91.90
2019-04-01T04:09:07.902Z,91.90
2019-04-01T04:11:36.512Z,91.90
2019-04-01T04:14:04.993Z,91.90
2019-04-01T04:16:33.488Z,92.00
2019-04-01T04:19:01.955Z,92.10
2019-04-01T04:21:30.420Z,92.00
2019-04-01T04:23:58.840Z,92.00
2019-04-01T04:26:27.342Z,92.00
2019-04-01T04:28:55.852Z,91.90
2019-04-01T04:31:24.275Z,92.00
2019-04-01T04:33:52.742Z,92.00
2019-04-01T04:36:21.147Z,92.00
2019-04-01T04:38:51.283Z,92.10
2019-04-01T04:41:19.779Z,92.10
2019-04-01T04:43:48.326Z,92.20
2019-04-01T04:46:20.688Z,92.20
2019-04-01T04:48:47.146Z,92.30
2019-04-01T04:51:15.612Z,92.20
2019-04-01T04:53:44.464Z,92.50
2019-04-01T04:56:13.027Z,92.40
2019-04-01T04:58:41.588Z,92.30
2019-04-01T05:01:10.216Z,92.30
2019-04-01T05:03:38.729Z,92.40
2019-04-01T05:06:07.216Z,92.30
2019-04-01T05:08:35.669Z,92.30
2019-04-01T05:11:04.236Z,92.20
2019-04-01T05:13:32.700Z,92.30
2019-04-01T05:16:01.291Z,92.40
2019-04-01T05:18:29.737Z,92.30
2019-04-01T05:20:59.734Z,92.10
2019-04-01T05:23:29.052Z,92.00
2019-04-01T05:25:58.164Z,92.00
2019-04-01T05:28:29.135Z,91.80
2019-04-01T05:30:59.557Z,91.80
2019-04-01T05:33:29.352Z,91.70
2019-04-01T05:35:58.211Z,91.70
2019-04-01T05:38:27.104Z,91.60
2019-04-01T05:40:55.764Z,91.40
2019-04-01T05:43:24.278Z,91.30
2019-04-01T05:45:52.871Z,91.20
2019-04-01T05:48:21.286Z,91.10
2019-04-01T05:50:51.304Z,90.90
2019-04-01T05:53:19.815Z,90.80
2019-04-01T05:55:49.371Z,90.70
2019-04-01T05:58:19.337Z,90.70
2019-04-01T06:00:50.383Z,90.60
2019-04-01T06:03:18.935Z,90.50
2019-04-01T06:05:47.806Z,90.30
2019-04-01T06:08:16.967Z,90.10
2019-04-01T06:10:45.444Z,89.80
2019-04-01T06:13:14.036Z,89.50
2019-04-01T06:15:42.524Z,89.40
2019-04-01T06:18:10.996Z,88.90
2019-04-01T06:20:40.308Z,88.40
2019-04-01T06:23:08.864Z,87.70
2019-04-01T06:25:37.438Z,87.30
2019-04-01T06:28:05.880Z,86.90
2019-04-01T06:30:34.391Z,86.20
2019-04-01T06:33:02.993Z,85.70
2019-04-01T06:35:32.413Z,85.10
2019-04-01T06:38:01.107Z,84.20
2019-04-01T06:40:29.578Z,83.50
2019-04-01T06:42:58.103Z,83.10
2019-04-01T06:45:26.697Z,82.70
2019-04-01T06:47:55.278Z,82.10
2019-04-01T06:50:23.814Z,81.70
2019-04-01T06:52:53.884Z,82.00
2019-04-01T06:55:23.842Z,81.60
2019-04-01T06:57:52.433Z,80.90
2019-04-01T07:00:23.069Z,80.00
2019-04-01T07:02:51.498Z,80.30
2019-04-01T07:05:20.060Z,79.60
2019-04-01T07:07:50.177Z,78.40
2019-04-01T07:10:18.994Z,76.90
2019-04-01T07:12:47.638Z,75.00
2019-04-01T07:15:16.200Z,73.50
2019-04-01T07:17:44.610Z,74.10
2019-04-01T07:20:13.257Z,74.60
2019-04-01T07:22:42.102Z,72.90
2019-04-01T07:25:10.812Z,72.80
2019-04-01T07:27:39.455Z,71.40
2019-04-01T07:30:08.364Z,69.10
2019-04-01T07:32:36.938Z,67.10
2019-04-01T07:35:06.017Z,67.30
2019-04-01T07:37:34.557Z,67.60
2019-04-01T07:40:04.550Z,67.50
2019-04-01T07:42:33.034Z,67.00
2019-04-01T07:45:01.556Z,66.30
2019-04-01T07:47:31.829Z,65.00
2019-04-01T07:50:00.408Z,64.30
2019-04-01T07:52:31.136Z,65.50
2019-04-01T07:55:00.426Z,65.30
2019-04-01T07:57:32.632Z,65.50
2019-04-01T08:00:00.377Z,67.10
2019-04-01T08:02:28.982Z,67.90
2019-04-01T08:04:57.527Z,68.20
2019-04-01T08:07:26.074Z,67.90
2019-04-01T08:09:54.561Z,68.20
2019-04-01T08:12:23.690Z,68.70
2019-04-01T08:14:52.348Z,68.60
2019-04-01T08:17:21.073Z,67.80
2019-04-01T08:19:49.595Z,67.60
2019-04-01T08:22:18.112Z,67.40
2019-04-01T08:24:46.621Z,66.60
2019-04-01T08:27:15.161Z,64.80
2019-04-01T08:29:43.744Z,64.80
2019-04-01T08:32:14.053Z,66.30
2019-04-01T08:34:42.423Z,66.50
2019-04-01T08:37:11.007Z,66.90
2019-04-01T08:39:39.563Z,65.50
2019-04-01T08:42:08.020Z,64.60
2019-04-01T08:44:36.559Z,65.00
2019-04-01T08:47:05.155Z,65.20
2019-04-01T08:49:33.803Z,64.20
2019-04-01T08:52:02.286Z,65.40
2019-04-01T08:54:30.820Z,65.80
2019-04-01T08:56:59.411Z,65.20
2019-04-01T08:59:28.004Z,63.60
2019-04-01T09:01:56.519Z,63.80
2019-04-01T09:04:24.996Z,63.80
2019-04-01T09:06:53.486Z,63.40
2019-04-01T09:09:23.624Z,63.10
2019-04-01T09:11:54.111Z,63.10
2019-04-01T09:14:23.655Z,63.20
2019-04-01T09:16:57.926Z,63.50
2019-04-01T09:19:26.449Z,63.70
2019-04-01T09:21:54.934Z,64.30
2019-04-01T09:24:23.492Z,62.90
2019-04-01T09:26:51.986Z,61.90
2019-04-01T09:29:20.558Z,61.70
2019-04-01T09:31:49.028Z,61.00
2019-04-01T09:34:17.478Z,62.00
2019-04-01T09:36:46.039Z,62.30
2019-04-01T09:39:14.516Z,62.10
2019-04-01T09:41:43.012Z,61.70
2019-04-01T09:44:11.500Z,60.70
2019-04-01T09:46:39.950Z,60.30
2019-04-01T09:49:08.408Z,60.00
2019-04-01T09:51:48.601Z,60.40
2019-04-01T09:54:08.241Z,60.10
2019-04-01T09:56:36.736Z,60.20
2019-04-01T09:59:05.407Z,59.70
2019-04-01T10:01:33.899Z,59.30
2019-04-01T10:04:02.414Z,59.40
2019-04-01T10:06:31.059Z,59.10
2019-04-01T10:08:59.522Z,59.90
2019-04-01T10:11:29.286Z,59.90
2019-04-01T10:13:57.825Z,59.70
2019-04-01T10:16:26.576Z,59.20
2019-04-01T10:18:55.239Z,58.90
2019-04-01T10:21:23.734Z,58.50
2019-04-01T10:23:52.549Z,58.10
2019-04-01T10:26:20.997Z,58.50
2019-04-01T10:28:49.513Z,58.10
2019-04-01T10:31:18.018Z,57.60
2019-04-01T10:33:46.455Z,57.40
2019-04-01T10:36:14.980Z,56.60
2019-04-01T10:38:46.509Z,56.90
2019-04-01T10:41:14.970Z,56.80
2019-04-01T10:43:43.530Z,56.80
2019-04-01T10:46:12.504Z,56.80
2019-04-01T10:48:41.248Z,56.30
2019-04-01T10:51:09.942Z,56.20
2019-04-01T10:53:38.375Z,55.10
2019-04-01T10:56:06.829Z,55.60
2019-04-01T10:58:35.974Z,55.50
2019-04-01T11:01:04.543Z,55.60
2019-04-01T11:03:33.202Z,55.30
2019-04-01T11:06:01.680Z,54.90
2019-04-01T11:08:30.346Z,54.40
2019-04-01T11:10:58.767Z,54.10
2019-04-01T11:13:31.610Z,54.60
2019-04-01T11:16:00.128Z,54.20
2019-04-01T11:18:28.562Z,54.10
2019-04-01T11:20:57.306Z,53.70
2019-04-01T11:23:28.355Z,53.30
2019-04-01T11:25:56.858Z,53.30
2019-04-01T11:28:25.307Z,53.00
2019-04-01T11:30:53.821Z,53.30
2019-04-01T11:33:22.382Z,53.30
2019-04-01T11:35:50.858Z,52.80
2019-04-01T11:38:19.398Z,52.90
2019-04-01T11:40:49.436Z,52.50
2019-04-01T11:43:18.057Z,52.20
2019-04-01T11:45:46.551Z,52.10
2019-04-01T11:48:15.098Z,52.30
2019-04-01T11:50:47.386Z,52.80
2019-04-01T11:53:13.996Z,52.10
2019-04-01T11:55:42.602Z,53.00
2019-04-01T11:58:11.060Z,52.70
2019-04-01T12:00:39.561Z,51.90
2019-04-01T12:03:08.010Z,52.40
2019-04-01T12:05:36.604Z,52.20
2019-04-01T12:08:05.022Z,52.00
2019-04-01T12:10:33.543Z,52.20
2019-04-01T12:13:01.977Z,52.50
2019-04-01T12:15:49.835Z,51.90
2019-04-01T12:18:18.347Z,51.50
2019-04-01T12:20:46.816Z,52.10
2019-04-01T12:23:15.408Z,51.80
2019-04-01T12:25:44.060Z,52.20
2019-04-01T12:28:14.099Z,52.40
2019-04-01T12:30:42.663Z,51.90
2019-04-01T12:33:11.164Z,51.60
2019-04-01T12:35:39.643Z,51.20
2019-04-01T12:38:08.070Z,51.20
2019-04-01T12:40:36.529Z,51.20
2019-04-01T12:43:05.162Z,50.90
2019-04-01T12:45:33.855Z,50.70
2019-04-01T12:48:02.303Z,50.60
2019-04-01T12:50:30.751Z,49.80
2019-04-01T12:52:59.211Z,49.40
2019-04-01T12:55:27.830Z,49.50
2019-04-01T12:57:56.276Z,49.50
2019-04-01T13:00:24.863Z,48.70
2019-04-01T13:02:53.322Z,48.70
2019-04-01T13:05:22.028Z,48.90
2019-04-01T13:07:54.155Z,48.90
2019-04-01T13:10:21.630Z,49.30
2019-04-01T13:12:53.761Z,49.00
2019-04-01T13:15:20.508Z,48.40
2019-04-01T13:17:49.932Z,47.70
2019-04-01T13:20:18.885Z,47.60
2019-04-01T13:22:48.023Z,48.20
2019-04-01T13:25:16.657Z,48.30
2019-04-01T13:27:45.086Z,47.80
2019-04-01T13:30:13.643Z,47.80
2019-04-01T13:32:42.117Z,47.70
2019-04-01T13:35:10.967Z,47.90
2019-04-01T13:37:39.385Z,47.60
2019-04-01T13:40:19.426Z,47.90
2019-04-01T13:42:46.603Z,47.90
2019-04-01T13:45:15.099Z,47.60
2019-04-01T13:47:43.527Z,47.20
2019-04-01T13:50:12.126Z,47.50
2019-04-01T13:52:40.661Z,46.80
2019-04-01T13:55:10.104Z,46.90
2019-04-01T13:57:38.865Z,46.70
2019-04-01T14:00:08.799Z,46.70
2019-04-01T14:02:37.319Z,46.60
2019-04-01T14:05:07.026Z,47.20
2019-04-01T14:07:35.614Z,46.60
2019-04-01T14:10:06.635Z,46.40
2019-04-01T14:12:35.207Z,46.50
2019-04-01T14:15:06.253Z,46.40
2019-04-01T14:17:34.855Z,46.60
2019-04-01T14:20:03.631Z,47.40
2019-04-01T14:22:32.070Z,45.50
2019-04-01T14:25:00.685Z,45.60
2019-04-01T14:27:29.234Z,45.50
2019-04-01T14:30:17.112Z,45.20
2019-04-01T14:32:45.572Z,45.40
2019-04-01T14:35:14.359Z,45.60
2019-04-01T14:37:43.227Z,45.80
2019-04-01T14:40:13.336Z,45.40
2019-04-01T14:42:41.845Z,45.00
2019-04-01T14:45:10.927Z,44.80
2019-04-01T14:47:56.077Z,44.60
2019-04-01T14:50:09.898Z,44.90
2019-04-01T14:52:38.379Z,45.30
2019-04-01T14:55:07.323Z,45.40
2019-04-01T14:57:35.859Z,45.60
2019-04-01T15:00:06.939Z,45.80
2019-04-01T15:02:35.445Z,46.20
2019-04-01T15:05:05.122Z,46.20
2019-04-01T15:07:33.952Z,46.30
2019-04-01T15:10:02.499Z,45.80
2019-04-01T15:12:30.950Z,45.40
2019-04-01T15:14:59.403Z,45.40
2019-04-01T15:17:27.825Z,45.50
2019-04-01T15:19:56.938Z,45.30
2019-04-01T15:22:27.254Z,45.50
2019-04-01T15:24:55.866Z,45.40
2019-04-01T15:27:24.290Z,45.30
2019-04-01T15:30:01.463Z,45.40
2019-04-01T15:32:29.971Z,45.90
2019-04-01T15:34:58.571Z,46.00
2019-04-01T15:37:27.383Z,45.90
2019-04-01T15:39:55.963Z,46.20
2019-04-01T15:42:24.394Z,45.90
2019-04-01T15:44:52.911Z,45.80
2019-04-01T15:47:21.358Z,46.10
2019-04-01T15:49:49.835Z,46.00
2019-04-01T15:52:18.364Z,45.80
2019-04-01T15:54:46.835Z,46.00
2019-04-01T15:57:15.465Z,46.10
2019-04-01T15:59:43.948Z,46.20
2019-04-01T16:02:12.479Z,46.30
2019-04-01T16:05:00.406Z,46.00
2019-04-01T16:07:29.260Z,45.80
2019-04-01T16:09:57.788Z,46.10
2019-04-01T16:12:26.265Z,46.30
2019-04-01T16:14:54.792Z,45.90
2019-04-01T16:17:23.267Z,45.80
2019-04-01T16:19:51.823Z,46.10
2019-04-01T16:22:21.198Z,45.90
2019-04-01T16:24:50.547Z,46.10
2019-04-01T16:27:19.070Z,46.40
2019-04-01T16:29:47.513Z,46.60
2019-04-01T16:32:15.934Z,46.60
2019-04-01T16:34:44.469Z,46.70
2019-04-01T16:37:12.957Z,46.60
2019-04-01T16:39:41.486Z,46.40
2019-04-01T16:42:09.924Z,46.80
2019-04-01T16:44:38.390Z,46.80
2019-04-01T16:47:06.998Z,46.90
2019-04-01T16:49:36.318Z,47.20
2019-04-01T16:52:05.716Z,47.00
2019-04-01T16:54:34.271Z,47.00
2019-04-01T16:57:02.705Z,47.50
2019-04-01T16:59:31.140Z,47.00
2019-04-01T17:01:59.687Z,47.00
2019-04-01T17:04:28.131Z,46.80
2019-04-01T17:06:56.602Z,47.00
2019-04-01T17:09:25.147Z,46.80
2019-04-01T17:11:54.380Z,47.00
2019-04-01T17:14:24.195Z,47.00
2019-04-01T17:16:53.202Z,47.60
2019-04-01T17:19:22.303Z,47.40
2019-04-01T17:21:50.969Z,47.60
2019-04-01T17:24:19.431Z,47.10
2019-04-01T17:26:59.782Z,47.10
2019-04-01T17:29:31.809Z,47.40
2019-04-01T17:31:59.539Z,47.00
2019-04-01T17:34:28.009Z,47.00
2019-04-01T17:36:56.484Z,46.00
2019-04-01T17:39:25.139Z,45.50
2019-04-01T17:41:53.664Z,45.10
2019-04-01T17:44:22.210Z,45.20
2019-04-01T17:46:50.722Z,45.50
2019-04-01T17:49:19.256Z,46.20
2019-04-01T17:51:47.727Z,46.60
2019-04-01T17:54:16.196Z,47.50
2019-04-01T17:56:44.786Z,48.70
2019-04-01T17:59:15.339Z,50.00
2019-04-01T18:01:44.054Z,50.40
2019-04-01T18:04:13.044Z,51.60
2019-04-01T18:06:41.745Z,52.60
2019-04-01T18:09:14.462Z,53.10
2019-04-01T18:11:42.994Z,53.20
2019-04-01T18:14:11.959Z,54.10
2019-04-01T18:16:40.475Z,54.60
2019-04-01T18:19:12.883Z,55.40
2019-04-01T18:21:41.370Z,55.90
2019-04-01T18:24:11.210Z,56.80
2019-04-01T18:26:39.907Z,56.70
2019-04-01T18:29:09.930Z,56.90
2019-04-01T18:31:38.774Z,57.30
2019-04-01T18:34:07.246Z,57.30
2019-04-01T18:36:35.766Z,57.80
2019-04-01T18:39:08.433Z,58.10
2019-04-01T18:41:36.895Z,58.00
2019-04-01T18:44:05.873Z,58.30
2019-04-01T18:46:34.371Z,58.80
2019-04-01T18:49:03.157Z,59.00
2019-04-01T18:51:31.613Z,59.60
2019-04-01T18:54:00.173Z,60.00
2019-04-01T18:56:29.191Z,59.40
2019-04-01T18:58:58.183Z,59.60
2019-04-01T19:01:27.071Z,58.70
2019-04-01T19:03:55.566Z,58.30
2019-04-01T19:06:24.248Z,58.70
2019-04-01T19:08:52.765Z,58.10
2019-04-01T19:11:21.273Z,58.70
2019-04-01T19:13:49.729Z,59.10
2019-04-01T19:16:18.252Z,59.00
2019-04-01T19:18:46.787Z,57.80
2019-04-01T19:21:15.222Z,57.60
2019-04-01T19:23:43.658Z,56.40
2019-04-01T19:26:12.129Z,55.60
2019-04-01T19:28:40.707Z,55.10
2019-04-01T19:31:09.279Z,54.70
2019-04-01T19:33:38.253Z,54.70
2019-04-01T19:36:07.190Z,54.60
2019-04-01T19:38:35.636Z,54.20
2019-04-01T19:41:04.268Z,54.60
2019-04-01T19:43:32.788Z,54.30
2019-04-01T19:46:01.328Z,54.50
2019-04-01T19:48:29.834Z,53.80
2019-04-01T19:50:59.327Z,54.10
2019-04-01T19:53:28.037Z,53.60
2019-04-01T19:55:56.616Z,53.60
2019-04-01T19:58:25.488Z,53.10
2019-04-01T20:00:54.711Z,52.90
2019-04-01T20:03:23.165Z,53.00
2019-04-01T20:05:51.647Z,53.10
2019-04-01T20:08:23.065Z,53.00
2019-04-01T20:10:51.726Z,52.90
2019-04-01T20:13:20.261Z,52.60
2019-04-01T20:16:10.185Z,52.40
2019-04-01T20:18:38.447Z,52.60
2019-04-01T20:21:06.886Z,52.80
2019-04-01T20:23:35.486Z,52.80
2019-04-01T20:26:04.781Z,52.90
2019-04-01T20:28:33.388Z,52.70
2019-04-01T20:31:01.858Z,52.80
2019-04-01T20:33:31.793Z,52.80
2019-04-01T20:36:00.625Z,52.70
2019-04-01T20:38:30.883Z,52.90
2019-04-01T20:40:59.426Z,53.60
2019-04-01T20:43:27.873Z,52.90
2019-04-01T20:45:56.359Z,53.30
2019-04-01T20:48:24.837Z,53.40
2019-04-01T20:50:55.033Z,53.60
2019-04-01T20:53:23.667Z,53.80
2019-04-01T20:55:52.238Z,54.20
2019-04-01T20:58:20.902Z,54.50
2019-04-01T21:00:49.883Z,54.80
2019-04-01T21:03:19.869Z,54.90
2019-04-01T21:05:50.055Z,54.90
2019-04-01T21:08:18.542Z,55.00
2019-04-01T21:10:47.079Z,55.20
2019-04-01T21:13:16.827Z,55.50
2019-04-01T21:15:45.273Z,56.00
2019-04-01T21:18:13.703Z,56.30
2019-04-01T21:20:42.271Z,56.50
2019-04-01T21:23:11.124Z,56.80
2019-04-01T21:25:39.530Z,57.20
2019-04-01T21:28:07.975Z,57.30
2019-04-01T21:30:36.412Z,57.50
2019-04-01T21:33:05.170Z,57.90
2019-04-01T21:35:54.491Z,58.20
2019-04-01T21:38:22.901Z,58.50
2019-04-01T21:40:51.384Z,59.00
2019-04-01T21:43:20.302Z,59.00
2019-04-01T21:45:49.282Z,59.30
2019-04-01T21:48:17.770Z,59.30
2019-04-01T21:50:46.300Z,59.10
2019-04-01T21:53:14.740Z,59.00
2019-04-01T21:55:43.158Z,59.20
2019-04-01T21:58:11.739Z,59.20
2019-04-01T22:00:47.770Z,59.20
2019-04-01T22:03:16.223Z,59.40
2019-04-01T22:05:44.672Z,59.80
2019-04-01T22:08:13.107Z,59.90
2019-04-01T22:10:41.599Z,60.30
2019-04-01T22:13:21.987Z,60.60
2019-04-01T22:15:50.601Z,60.90
2019-04-01T22:18:19.067Z,61.90
2019-04-01T22:20:47.495Z,62.40
2019-04-01T22:23:15.960Z,62.00
2019-04-01T22:25:44.443Z,61.90
2019-04-01T22:28:12.935Z,61.80
2019-04-01T22:30:41.382Z,61.90
2019-04-01T22:33:11.071Z,62.00
2019-04-01T22:35:41.525Z,61.90
2019-04-01T22:38:09.970Z,62.20
2019-04-01T22:40:38.446Z,62.40
2019-04-01T22:43:26.215Z,62.90
2019-04-01T22:45:54.667Z,63.60
2019-04-01T22:48:23.097Z,63.50
2019-04-01T22:50:51.548Z,63.40
2019-04-01T22:53:20.042Z,63.70
2019-04-01T22:55:48.481Z,63.70
2019-04-01T22:58:16.974Z,63.80
2019-04-01T23:00:46.202Z,63.60
2019-04-01T23:03:15.740Z,63.50
2019-04-01T23:05:44.189Z,63.70
2019-04-01T23:08:12.651Z,64.40
2019-04-01T23:10:41.073Z,64.00
2019-04-01T23:13:09.494Z,64.00
2019-04-01T23:15:57.270Z,63.90
2019-04-01T23:18:25.710Z,63.90
2019-04-01T23:20:54.182Z,64.30
2019-04-01T23:23:22.645Z,64.70
2019-04-01T23:25:51.099Z,65.10
2019-04-01T23:28:19.558Z,65.10
2019-04-01T23:30:48.152Z,65.20
2019-04-01T23:33:17.623Z,65.40
2019-04-01T23:35:46.130Z,65.50
2019-04-01T23:38:14.651Z,65.80
2019-04-01T23:40:43.157Z,65.90
2019-04-01T23:43:11.569Z,65.90
2019-04-01T23:45:40.118Z,65.90
2019-04-01T23:48:08.538Z,65.70
2019-04-01T23:50:38.034Z,65.90
2019-04-01T23:53:06.922Z,65.90
2019-04-01T23:55:35.358Z,65.90
2019-04-01T23:58:03.877Z,66.00
